Time;durP1;ratioP1;P1;durP2;ratioP2;P2;SDS_P1;SDS_P2;PMS_P1;PMS_P2;Temp;Humidity;BMP_temperature;BMP_pressure;BME280_temperature;BME280_humidity;BME280_pressure;Samples;Min_cycle;Max_cycle;Signal;HPM_P1;HPM_P2
2021/03/06 00:00:38;;;;;;;7.25;4.30;;;-0.30;99.90;;;;;;5052451;28;20225;-74
2021/03/06 00:03:04;;;;;;;7.60;3.70;;;-0.30;99.90;;;;;;5053668;28;20202;-74
2021/03/06 00:05:31;;;;;;;7.57;3.83;;;-0.40;99.90;;;;;;5056778;28;20232;-74
2021/03/06 00:07:58;;;;;;;5.18;4.07;;;-0.40;99.90;;;;;;5063995;28;20216;-75
2021/03/06 00:10:25;;;;;;;4.75;3.63;;;-0.30;99.90;;;;;;5057849;28;20647;-74
2021/03/06 00:12:51;;;;;;;4.70;3.55;;;-0.30;99.90;;;;;;5058649;28;20206;-74
2021/03/06 00:15:21;;;;;;;5.10;3.83;;;-0.30;99.90;;;;;;5057340;28;20198;-74
2021/03/06 00:17:47;;;;;;;7.47;3.45;;;-0.30;99.90;;;;;;5056802;28;20208;-74
2021/03/06 00:20:14;;;;;;;5.43;3.67;;;-0.30;99.90;;;;;;5060043;28;20209;-74
2021/03/06 00:22:41;;;;;;;5.70;3.88;;;-0.30;99.90;;;;;;5057730;28;20936;-74
2021/03/06 00:25:11;;;;;;;5.97;3.95;;;-0.40;99.90;;;;;;5056220;28;20230;-74
2021/03/06 00:27:38;;;;;;;5.53;3.85;;;-0.50;99.90;;;;;;5062545;28;20194;-74
2021/03/06 00:30:07;;;;;;;4.10;3.40;;;-0.50;99.90;;;;;;5056296;28;20194;-74
2021/03/06 00:32:34;;;;;;;6.43;4.05;;;-0.50;99.90;;;;;;5056827;28;20209;-74
2021/03/06 00:35:00;;;;;;;6.05;4.45;;;-0.50;99.90;;;;;;5055060;28;20214;-74
2021/03/06 00:37:27;;;;;;;5.65;4.57;;;-0.50;99.90;;;;;;5054019;28;20202;-75
2021/03/06 00:39:53;;;;;;;5.15;4.38;;;-0.50;99.90;;;;;;5047852;28;20259;-75
2021/03/06 00:42:21;;;;;;;7.55;4.10;;;-0.60;99.90;;;;;;5060180;28;20205;-74
2021/03/06 00:44:47;;;;;;;12.65;4.35;;;-0.60;99.90;;;;;;5048003;28;20778;-74
2021/03/06 00:47:13;;;;;;;4.82;3.97;;;-0.60;99.90;;;;;;5061048;28;20601;-74
2021/03/06 00:49:40;;;;;;;7.75;5.07;;;-0.60;99.90;;;;;;5064591;28;20205;-75
2021/03/06 00:52:07;;;;;;;5.43;4.47;;;-0.60;99.90;;;;;;5064986;28;20202;-74
2021/03/06 00:54:33;;;;;;;5.68;4.57;;;-0.60;99.90;;;;;;5056736;28;20201;-74
2021/03/06 00:56:59;;;;;;;5.28;4.68;;;-0.60;99.90;;;;;;5064481;28;20208;-75
2021/03/06 00:59:27;;;;;;;5.45;4.00;;;-0.70;99.90;;;;;;5060296;28;20201;-75
2021/03/06 01:01:53;;;;;;;4.18;3.88;;;-0.60;99.90;;;;;;5060619;28;20289;-75
2021/03/06 01:04:20;;;;;;;13.40;4.72;;;-0.70;99.90;;;;;;5060870;28;20243;-75
2021/03/06 01:06:46;;;;;;;8.00;5.50;;;-0.70;99.90;;;;;;5055940;28;20209;-74
2021/03/06 01:09:13;;;;;;;7.88;4.57;;;-0.70;99.90;;;;;;5059166;28;20202;-74
2021/03/06 01:11:39;;;;;;;5.28;4.78;;;-0.80;99.90;;;;;;5057294;28;20251;-74
2021/03/06 01:14:06;;;;;;;8.07;5.07;;;-0.80;99.90;;;;;;5048128;28;20240;-74
2021/03/06 01:16:33;;;;;;;4.60;4.20;;;-0.90;99.90;;;;;;5057163;28;20198;-74
2021/03/06 01:19:00;;;;;;;17.40;4.93;;;-0.90;99.90;;;;;;5062127;28;20201;-74
2021/03/06 01:21:26;;;;;;;8.40;4.43;;;-0.90;99.90;;;;;;5060066;28;20202;-74
2021/03/06 01:23:53;;;;;;;9.10;4.97;;;-0.90;99.90;;;;;;5056560;28;20212;-74
2021/03/06 01:26:19;;;;;;;11.00;4.75;;;-0.90;99.90;;;;;;5054017;28;20212;-74
2021/03/06 01:28:46;;;;;;;8.52;4.72;;;-0.90;99.90;;;;;;5056158;28;20209;-74
2021/03/06 01:31:12;;;;;;;5.35;4.32;;;-0.90;99.90;;;;;;5061568;28;20558;-74
2021/03/06 01:33:40;;;;;;;5.95;4.35;;;-0.90;99.90;;;;;;5063219;28;20205;-75
2021/03/06 01:36:07;;;;;;;5.05;4.45;;;-0.90;99.90;;;;;;5055309;28;20209;-74
2021/03/06 01:38:33;;;;;;;8.45;4.70;;;-1.00;99.90;;;;;;5055145;28;20202;-75
2021/03/06 01:41:00;;;;;;;5.22;4.78;;;-1.00;99.90;;;;;;5057596;28;20202;-74
2021/03/06 01:43:27;;;;;;;7.05;5.32;;;-1.00;99.90;;;;;;5054619;28;20205;-75
2021/03/06 01:45:53;;;;;;;8.82;5.55;;;-1.00;99.90;;;;;;5061567;28;20236;-75
2021/03/06 01:48:20;;;;;;;7.55;5.65;;;-1.00;99.90;;;;;;5057435;28;20201;-75
2021/03/06 01:50:47;;;;;;;13.43;5.13;;;-1.00;99.90;;;;;;5057622;28;20206;-75
2021/03/06 01:53:15;;;;;;;6.55;5.30;;;-1.00;99.90;;;;;;5056062;28;20216;-75
2021/03/06 01:55:44;;;;;;;9.13;5.20;;;-1.00;99.90;;;;;;5056916;28;20220;-75
2021/03/06 01:58:11;;;;;;;6.28;4.97;;;-1.00;99.90;;;;;;5064970;28;20197;-75
2021/03/06 02:00:38;;;;;;;5.93;5.25;;;-1.10;99.90;;;;;;5051921;28;20201;-75
2021/03/06 02:03:05;;;;;;;6.30;5.22;;;-1.10;99.90;;;;;;5053059;28;20206;-75
2021/03/06 02:05:31;;;;;;;8.68;5.13;;;-1.10;99.90;;;;;;5050475;28;20224;-75
2021/03/06 02:07:59;;;;;;;13.88;5.43;;;-1.10;99.90;;;;;;5052851;28;20198;-75
2021/03/06 02:10:29;;;;;;;7.85;5.05;;;-1.20;99.90;;;;;;5052435;28;20227;-75
2021/03/06 02:13:05;;;;;;;11.85;5.10;;;-1.10;99.90;;;;;;5053206;28;20616;-75
2021/03/06 02:15:46;;;;;;;9.45;4.80;;;-1.20;99.90;;;;;;5051028;28;20209;-76
2021/03/06 02:18:18;;;;;;;10.77;6.50;;;-1.20;99.90;;;;;;5049791;28;20206;-75
2021/03/06 02:20:56;;;;;;;12.85;5.35;;;-1.20;99.90;;;;;;5049095;28;20252;-75
2021/03/06 02:23:57;;;;;;;9.57;5.40;;;-1.20;99.90;;;;;;5056813;28;20201;-75
2021/03/06 02:26:30;;;;;;;7.13;5.18;;;-1.30;99.90;;;;;;5047020;28;20239;-74
2021/03/06 02:29:07;;;;;;;12.40;5.97;;;-1.30;99.90;;;;;;5054581;28;20205;-74
2021/03/06 02:31:38;;;;;;;10.73;6.20;;;-1.40;99.90;;;;;;5062971;28;20272;-75
2021/03/06 02:34:09;;;;;;;16.40;5.80;;;-1.40;99.90;;;;;;5058794;28;20201;-74
2021/03/06 02:36:40;;;;;;;9.73;4.88;;;-1.40;99.90;;;;;;5046881;28;20198;-74
2021/03/06 02:39:11;;;;;;;7.55;4.45;;;-1.40;99.90;;;;;;5062923;28;20194;-74
2021/03/06 02:41:39;;;;;;;9.43;4.70;;;-1.40;99.90;;;;;;5056133;28;20197;-74
2021/03/06 02:44:08;;;;;;;7.07;5.00;;;-1.40;99.90;;;;;;5056931;28;20270;-74
2021/03/06 02:46:36;;;;;;;10.50;5.32;;;-1.50;99.90;;;;;;5052596;28;20202;-75
2021/03/06 02:49:03;;;;;;;10.55;5.35;;;-1.40;99.90;;;;;;5057959;28;20205;-74
2021/03/06 02:51:36;;;;;;;8.15;5.88;;;-1.40;99.90;;;;;;5055487;28;20208;-74
2021/03/06 02:54:04;;;;;;;12.20;5.97;;;-1.40;99.90;;;;;;5050350;28;20227;-74
2021/03/06 02:56:30;;;;;;;6.90;5.25;;;-1.40;99.90;;;;;;5054233;28;20197;-74
2021/03/06 02:59:20;;;;;;;10.13;5.35;;;-1.40;99.90;;;;;;5056371;28;20205;-74
2021/03/06 03:02:01;;;;;;;14.45;5.32;;;-1.50;99.90;;;;;;5063576;28;20284;-74
2021/03/06 03:04:36;;;;;;;8.90;6.10;;;-1.50;99.90;;;;;;5055862;28;20209;-75
2021/03/06 03:07:09;;;;;;;6.30;5.70;;;-1.50;99.90;;;;;;5060458;28;20192;-75
2021/03/06 03:09:42;;;;;;;11.43;6.35;;;-1.50;99.90;;;;;;5058114;28;20273;-75
2021/03/06 03:12:14;;;;;;;7.45;5.68;;;-1.60;99.90;;;;;;5049254;28;20678;-74
2021/03/06 03:14:47;;;;;;;6.28;5.47;;;-1.50;99.90;;;;;;5057070;28;20237;-74
2021/03/06 03:17:23;;;;;;;5.50;5.00;;;-1.50;99.90;;;;;;5059403;28;20288;-74
2021/03/06 03:19:58;;;;;;;10.40;5.90;;;-1.60;99.90;;;;;;5052165;28;20201;-75
2021/03/06 03:22:28;;;;;;;11.68;6.00;;;-1.60;99.90;;;;;;5052018;28;20202;-74
2021/03/06 03:24:58;;;;;;;9.70;5.70;;;-1.70;99.90;;;;;;5051560;28;20222;-74
2021/03/06 03:27:28;;;;;;;9.77;5.65;;;-1.70;99.90;;;;;;5051670;28;20202;-74
2021/03/06 03:29:56;;;;;;;10.25;6.20;;;-1.60;99.90;;;;;;5053529;28;20647;-74
2021/03/06 03:32:27;;;;;;;9.43;6.03;;;-1.70;99.90;;;;;;5059660;28;20197;-75
2021/03/06 03:34:56;;;;;;;7.13;5.13;;;-1.70;99.90;;;;;;5055419;28;20206;-74
2021/03/06 03:37:23;;;;;;;12.50;5.88;;;-1.70;99.90;;;;;;5062715;28;20201;-74
2021/03/06 03:39:50;;;;;;;13.43;5.28;;;-1.70;99.90;;;;;;5057055;28;20209;-74
2021/03/06 03:42:20;;;;;;;7.80;5.80;;;-1.70;99.90;;;;;;5050675;28;20223;-74
2021/03/06 03:44:49;;;;;;;10.05;6.10;;;-1.70;99.90;;;;;;5046579;28;20226;-75
2021/03/06 03:47:17;;;;;;;8.85;6.18;;;-1.70;99.90;;;;;;5057973;28;20280;-75
2021/03/06 03:49:44;;;;;;;10.45;6.18;;;-1.80;99.90;;;;;;5060059;28;20662;-75
2021/03/06 03:52:11;;;;;;;7.95;5.57;;;-1.80;99.90;;;;;;5057361;28;20208;-75
2021/03/06 03:54:39;;;;;;;6.93;5.35;;;-1.80;99.90;;;;;;5057283;28;20198;-75
2021/03/06 03:57:08;;;;;;;5.40;4.63;;;-1.80;99.90;;;;;;5049789;28;20210;-75
2021/03/06 03:59:35;;;;;;;13.32;5.03;;;-1.80;99.90;;;;;;5062127;28;20224;-75
2021/03/06 04:02:01;;;;;;;7.93;5.25;;;-1.80;99.90;;;;;;5052668;28;20296;-75
2021/03/06 04:04:31;;;;;;;13.52;5.72;;;-1.80;99.90;;;;;;5058711;28;20287;-75
2021/03/06 04:07:01;;;;;;;7.93;5.57;;;-1.80;99.90;;;;;;5050204;28;20201;-75
2021/03/06 04:09:28;;;;;;;13.63;6.05;;;-1.90;99.90;;;;;;5051331;28;20791;-75
2021/03/06 04:11:55;;;;;;;9.82;6.30;;;-1.80;99.90;;;;;;5053615;28;20204;-75
2021/03/06 04:14:22;;;;;;;10.25;4.80;;;-1.80;99.90;;;;;;5058751;28;20243;-75
2021/03/06 04:16:48;;;;;;;6.72;5.85;;;-1.80;99.90;;;;;;5059263;28;20208;-75
2021/03/06 04:19:15;;;;;;;7.90;5.50;;;-1.80;99.90;;;;;;5063166;28;20197;-75
2021/03/06 04:21:41;;;;;;;9.00;5.82;;;-1.80;99.90;;;;;;5064147;28;20267;-75
2021/03/06 04:24:09;;;;;;;11.82;6.20;;;-1.80;99.90;;;;;;5059688;28;20198;-75
2021/03/06 04:26:36;;;;;;;6.10;5.45;;;-1.90;99.90;;;;;;5054454;28;20611;-74
2021/03/06 04:29:02;;;;;;;10.80;5.85;;;-1.90;99.90;;;;;;5060718;28;20205;-74
2021/03/06 04:31:29;;;;;;;8.02;5.43;;;-1.90;99.90;;;;;;5063535;28;20203;-74
2021/03/06 04:33:55;;;;;;;9.80;6.57;;;-1.90;99.90;;;;;;5059992;28;20201;-74
2021/03/06 04:36:22;;;;;;;9.23;5.82;;;-1.90;99.90;;;;;;5058409;28;20201;-74
2021/03/06 04:38:48;;;;;;;8.25;6.75;;;-1.90;99.90;;;;;;5055442;28;20212;-74
2021/03/06 04:41:16;;;;;;;9.10;6.85;;;-1.90;99.90;;;;;;5062802;28;20212;-74
2021/03/06 04:43:42;;;;;;;9.45;6.25;;;-1.90;99.90;;;;;;5048672;28;20201;-74
2021/03/06 04:46:08;;;;;;;11.10;7.65;;;-1.90;99.90;;;;;;5059623;28;20231;-74
2021/03/06 04:48:35;;;;;;;9.90;5.32;;;-2.00;99.90;;;;;;5060253;28;20233;-74
2021/03/06 04:51:02;;;;;;;7.60;6.25;;;-2.00;99.90;;;;;;5052098;28;20186;-75
2021/03/06 04:53:29;;;;;;;8.57;6.03;;;-2.00;99.90;;;;;;5065338;28;20202;-75
2021/03/06 04:55:55;;;;;;;8.57;6.43;;;-2.00;99.90;;;;;;5058520;28;20204;-75
2021/03/06 04:58:22;;;;;;;8.57;6.32;;;-2.00;99.90;;;;;;5051727;28;20209;-75
2021/03/06 05:00:49;;;;;;;7.25;5.70;;;-1.90;99.90;;;;;;5053034;28;20209;-74
2021/03/06 05:03:15;;;;;;;8.05;5.80;;;-2.00;99.90;;;;;;5053923;28;20198;-75
2021/03/06 05:05:42;;;;;;;10.98;6.80;;;-2.00;99.90;;;;;;5049132;28;20233;-74
2021/03/06 05:08:08;;;;;;;9.43;6.07;;;-2.00;99.90;;;;;;5051992;28;20202;-74
2021/03/06 05:10:35;;;;;;;8.25;6.30;;;-2.00;99.90;;;;;;5062165;28;20212;-74
2021/03/06 05:13:01;;;;;;;15.38;7.18;;;-2.00;99.90;;;;;;5056203;28;20208;-74
2021/03/06 05:15:29;;;;;;;6.45;5.05;;;-2.00;99.90;;;;;;5053424;28;20494;-74
2021/03/06 05:17:55;;;;;;;8.77;6.43;;;-2.00;99.90;;;;;;5056218;28;20217;-74
2021/03/06 05:20:22;;;;;;;8.15;5.70;;;-2.00;99.90;;;;;;5058328;28;20213;-74
2021/03/06 05:22:48;;;;;;;9.82;6.22;;;-2.10;99.90;;;;;;5056559;28;20274;-74
2021/03/06 05:25:14;;;;;;;9.57;6.20;;;-2.10;99.90;;;;;;5063754;28;21134;-74
2021/03/06 05:27:41;;;;;;;9.10;5.57;;;-2.10;99.90;;;;;;5062875;28;20217;-74
2021/03/06 05:30:09;;;;;;;7.97;5.80;;;-2.10;99.90;;;;;;5060072;28;20208;-74
2021/03/06 05:32:36;;;;;;;9.60;6.35;;;-2.10;99.90;;;;;;5057194;28;20202;-74
2021/03/06 05:35:03;;;;;;;7.95;5.40;;;-2.10;99.90;;;;;;5054926;28;20213;-74
2021/03/06 05:37:30;;;;;;;11.90;6.00;;;-2.10;99.90;;;;;;5062649;28;20201;-74
2021/03/06 05:39:56;;;;;;;7.75;5.75;;;-2.10;99.90;;;;;;5051799;28;20206;-74
2021/03/06 05:42:24;;;;;;;9.05;5.43;;;-2.10;99.90;;;;;;5058316;28;20209;-74
2021/03/06 05:44:52;;;;;;;11.52;5.72;;;-2.20;99.90;;;;;;5053526;28;20221;-74
2021/03/06 05:47:19;;;;;;;7.18;5.78;;;-2.20;99.90;;;;;;5063499;28;20231;-74
2021/03/06 05:49:46;;;;;;;7.88;5.22;;;-2.10;99.90;;;;;;5055218;28;20212;-74
2021/03/06 05:52:17;;;;;;;7.57;5.38;;;-2.10;99.90;;;;;;5050010;28;20325;-74
2021/03/06 05:54:47;;;;;;;8.07;5.45;;;-2.10;99.90;;;;;;5049329;28;20214;-74
2021/03/06 05:57:14;;;;;;;6.68;5.05;;;-2.10;99.90;;;;;;5052306;28;20202;-75
2021/03/06 05:59:41;;;;;;;6.95;5.18;;;-2.10;99.90;;;;;;5063087;28;20201;-74
2021/03/06 06:02:07;;;;;;;6.30;5.00;;;-2.10;99.90;;;;;;5055892;28;20271;-74
2021/03/06 06:04:36;;;;;;;9.32;5.72;;;-2.10;99.90;;;;;;5056796;28;20308;-74
2021/03/06 06:07:04;;;;;;;7.70;5.38;;;-2.20;99.90;;;;;;5056289;28;20208;-75
2021/03/06 06:09:30;;;;;;;8.70;5.60;;;-2.20;99.90;;;;;;5053196;28;20589;-75
2021/03/06 06:11:57;;;;;;;14.52;5.80;;;-2.10;99.90;;;;;;5061448;28;20452;-74
2021/03/06 06:14:23;;;;;;;12.43;5.78;;;-2.20;99.90;;;;;;5054102;28;20262;-75
2021/03/06 06:16:50;;;;;;;11.25;6.13;;;-2.10;99.90;;;;;;5059067;28;20217;-74
2021/03/06 06:19:17;;;;;;;9.23;6.18;;;-2.10;99.90;;;;;;5056675;28;20204;-74
2021/03/06 06:21:45;;;;;;;7.32;5.78;;;-2.10;99.90;;;;;;5052025;28;20236;-74
2021/03/06 06:24:14;;;;;;;9.13;5.55;;;-2.10;99.90;;;;;;5058383;28;20193;-75
2021/03/06 06:26:53;;;;;;;12.02;7.03;;;-2.10;99.90;;;;;;5053086;28;20228;-75
2021/03/06 06:29:36;;;;;;;6.28;5.47;;;-2.10;99.90;;;;;;5057490;28;20198;-75
2021/03/06 06:32:02;;;;;;;10.07;5.20;;;-2.10;99.90;;;;;;5051089;28;20197;-74
2021/03/06 06:34:29;;;;;;;10.85;6.38;;;-2.10;99.90;;;;;;5058608;28;20204;-74
2021/03/06 06:36:55;;;;;;;7.40;5.90;;;-2.00;99.90;;;;;;5061942;28;20236;-74
2021/03/06 06:39:29;;;;;;;14.15;6.15;;;-2.10;99.90;;;;;;5051294;28;20220;-75
2021/03/06 06:41:57;;;;;;;9.38;5.40;;;-2.00;99.90;;;;;;5047283;28;20619;-75
2021/03/06 06:44:25;;;;;;;10.55;5.93;;;-2.00;99.90;;;;;;5046678;28;20228;-75
2021/03/06 06:46:52;;;;;;;8.52;5.60;;;-2.00;99.90;;;;;;5054776;28;20205;-75
2021/03/06 06:49:19;;;;;;;10.23;5.95;;;-1.90;99.90;;;;;;5051566;28;20205;-75
2021/03/06 06:55:11;;;;;;;9.95;6.40;;;-1.80;99.90;;;;;;5050569;28;20208;-75
2021/03/06 06:57:47;;;;;;;7.97;5.97;;;-1.80;99.90;;;;;;5052150;28;20206;-75
2021/03/06 07:00:16;;;;;;;8.00;5.75;;;-1.80;99.90;;;;;;5046336;28;20232;-75
2021/03/06 07:02:54;;;;;;;12.68;6.78;;;-1.80;99.90;;;;;;5091485;28;20209;-75
2021/03/06 07:05:32;;;;;;;8.90;6.05;;;-1.70;99.90;;;;;;5051966;28;20225;-75
2021/03/06 07:08:00;;;;;;;10.85;6.53;;;-1.60;99.90;;;;;;5056963;28;20204;-74
2021/03/06 07:10:34;;;;;;;12.32;7.35;;;-1.60;99.90;;;;;;5053818;28;20285;-75
2021/03/06 07:13:02;;;;;;;19.50;5.93;;;-1.50;99.90;;;;;;5053939;28;20200;-75
2021/03/06 07:15:30;;;;;;;7.07;5.70;;;-1.40;99.90;;;;;;5054816;28;20204;-76
2021/03/06 07:17:58;;;;;;;10.82;6.47;;;-1.30;99.90;;;;;;5049960;28;20205;-76
2021/03/06 07:20:31;;;;;;;11.45;7.60;;;-1.20;99.90;;;;;;5057763;28;20205;-75
2021/03/06 07:22:59;;;;;;;11.75;7.32;;;-1.30;99.90;;;;;;5049892;28;20631;-75
2021/03/06 07:25:27;;;;;;;9.40;8.18;;;-1.20;99.90;;;;;;5055781;28;20229;-75
2021/03/06 07:27:54;;;;;;;18.48;9.20;;;-1.20;99.90;;;;;;5063926;28;20208;-75
2021/03/06 07:30:21;;;;;;;24.45;14.10;;;-1.00;99.90;;;;;;5054563;28;20236;-75
2021/03/06 07:32:48;;;;;;;22.98;10.85;;;-1.00;99.90;;;;;;5060924;28;20267;-75
2021/03/06 07:35:16;;;;;;;16.30;9.00;;;-0.90;99.90;;;;;;5057327;28;20284;-76
2021/03/06 07:37:43;;;;;;;13.68;8.50;;;-0.80;99.90;;;;;;5060114;28;20212;-74
2021/03/06 07:40:11;;;;;;;11.73;7.60;;;-0.80;99.90;;;;;;5065650;28;20201;-74
2021/03/06 07:42:43;;;;;;;10.43;6.80;;;-0.80;99.90;;;;;;5060213;28;20194;-76
2021/03/06 07:45:15;;;;;;;10.15;7.43;;;-0.70;99.90;;;;;;5056066;28;20229;-75
2021/03/06 07:47:43;;;;;;;14.40;8.10;;;-0.60;99.90;;;;;;5060682;28;20201;-75
2021/03/06 07:50:18;;;;;;;15.25;7.53;;;-0.50;99.90;;;;;;5061506;28;20548;-75
2021/03/06 07:52:46;;;;;;;13.25;7.55;;;-0.40;99.90;;;;;;5065824;28;20197;-75
2021/03/06 07:55:14;;;;;;;15.27;7.90;;;-0.30;99.90;;;;;;5066130;28;20236;-75
2021/03/06 07:58:01;;;;;;;9.27;7.40;;;-0.20;99.90;;;;;;5066463;28;20228;-75
2021/03/06 08:00:49;;;;;;;13.68;8.50;;;-0.10;99.90;;;;;;5061877;28;20205;-74
2021/03/06 08:03:38;;;;;;;12.70;7.93;;;0.20;99.90;;;;;;5061699;28;20607;-74
2021/03/06 08:06:18;;;;;;;14.27;8.15;;;1.10;99.90;;;;;;5061930;28;20226;-74
2021/03/06 08:09:15;;;;;;;12.10;7.75;;;2.50;99.90;;;;;;5055830;28;20694;-75
2021/03/06 08:11:45;;;;;;;10.27;6.43;;;4.30;99.90;;;;;;5057907;28;20210;-75
2021/03/06 08:14:40;;;;;;;10.88;6.60;;;5.60;99.90;;;;;;5059259;28;20237;-76
2021/03/06 08:17:33;;;;;;;9.60;6.55;;;7.10;99.90;;;;;;5054817;28;20300;-75
2021/03/06 08:20:00;;;;;;;7.00;6.30;;;8.10;99.90;;;;;;5057931;28;20317;-76
2021/03/06 08:22:27;;;;;;;8.48;6.10;;;8.70;99.90;;;;;;5053760;28;20285;-76
2021/03/06 08:24:53;;;;;;;11.65;6.20;;;9.40;99.90;;;;;;5059102;28;20221;-76
2021/03/06 08:27:22;;;;;;;9.25;6.10;;;10.20;99.90;;;;;;5054495;28;20206;-76
2021/03/06 08:29:53;;;;;;;8.98;6.88;;;10.60;99.90;;;;;;5049279;28;20209;-77
2021/03/06 08:32:39;;;;;;;9.82;7.57;;;11.00;99.90;;;;;;5046022;28;20202;-74
2021/03/06 08:35:28;;;;;;;8.27;6.57;;;11.30;99.90;;;;;;5058891;28;20221;-74
2021/03/06 08:37:55;;;;;;;6.88;6.15;;;12.10;98.90;;;;;;5050393;28;20210;-74
2021/03/06 08:40:27;;;;;;;10.18;6.38;;;12.40;96.50;;;;;;5056305;28;20217;-74
2021/03/06 08:42:55;;;;;;;10.48;6.40;;;12.70;96.60;;;;;;5064154;28;20243;-74
2021/03/06 08:45:24;;;;;;;10.68;6.45;;;13.20;94.00;;;;;;5057705;28;20257;-75
2021/03/06 08:47:55;;;;;;;8.70;5.93;;;13.50;92.50;;;;;;5057684;28;20220;-74
2021/03/06 08:50:23;;;;;;;8.55;6.35;;;13.60;91.40;;;;;;5063037;28;20201;-73
2021/03/06 08:52:58;;;;;;;8.75;6.18;;;13.50;91.00;;;;;;5049104;28;20262;-75
2021/03/06 08:55:26;;;;;;;9.38;6.75;;;13.70;91.10;;;;;;5054605;28;20204;-75
2021/03/06 08:57:53;;;;;;;12.10;7.63;;;14.00;90.30;;;;;;5059782;28;20209;-75
2021/03/06 09:00:23;;;;;;;10.05;7.57;;;14.40;87.80;;;;;;5059263;28;20671;-75
2021/03/06 09:02:51;;;;;;;10.88;7.32;;;14.60;86.20;;;;;;5060895;28;20207;-74
2021/03/06 09:05:21;;;;;;;15.27;7.82;;;15.10;84.20;;;;;;5053989;28;20249;-73
2021/03/06 09:07:49;;;;;;;8.73;5.47;;;15.70;83.10;;;;;;5065244;28;20205;-73
2021/03/06 09:10:37;;;;;;;7.18;5.80;;;16.20;77.80;;;;;;5061115;28;20205;-74
2021/03/06 09:13:06;;;;;;;9.43;6.03;;;16.60;73.60;;;;;;5059730;28;20205;-73
2021/03/06 09:15:45;;;;;;;5.05;4.30;;;16.80;70.70;;;;;;5066277;28;20811;-73
2021/03/06 09:18:14;;;;;;;4.95;4.32;;;17.00;64.80;;;;;;5056378;28;20286;-73
2021/03/06 09:20:51;;;;;;;5.30;4.45;;;16.80;62.90;;;;;;5058953;28;20217;-74
2021/03/06 09:23:25;;;;;;;7.22;4.53;;;16.70;61.10;;;;;;5050967;28;20222;-74
2021/03/06 09:25:52;;;;;;;7.22;4.25;;;16.60;61.10;;;;;;5058903;28;20246;-74
2021/03/06 09:28:23;;;;;;;4.78;3.33;;;16.50;59.80;;;;;;5048482;28;20230;-74
2021/03/06 09:30:51;;;;;;;6.07;4.00;;;16.50;59.50;;;;;;5054564;28;20214;-74
2021/03/06 09:33:26;;;;;;;6.97;4.10;;;16.20;59.70;;;;;;5048953;28;22435;-75
2021/03/06 09:36:03;;;;;;;7.68;3.85;;;15.90;57.90;;;;;;5060170;28;20204;-74
2021/03/06 09:41:24;;;;;;;7.57;5.05;;;15.70;58.30;;;;;;5076937;28;20198;-75
2021/03/06 09:43:53;;;;;;;8.90;4.50;;;15.80;59.00;;;;;;5064271;28;20562;-77
2021/03/06 09:46:23;;;;;;;9.02;4.13;;;15.70;59.10;;;;;;5054379;28;20238;-77
2021/03/06 09:48:54;;;;;;;9.93;4.25;;;15.50;60.20;;;;;;5054757;28;20203;-77
2021/03/06 09:51:22;;;;;;;6.07;3.75;;;15.80;59.90;;;;;;5063740;28;20610;-77
2021/03/06 09:53:56;;;;;;;4.47;3.03;;;15.80;59.10;;;;;;5056938;28;20775;-77
2021/03/06 09:56:23;;;;;;;9.93;4.25;;;16.00;58.50;;;;;;5056300;28;20210;-77
2021/03/06 09:58:58;;;;;;;6.43;3.97;;;16.40;59.70;;;;;;5058606;28;20578;-77
2021/03/06 10:01:25;;;;;;;6.45;3.65;;;17.00;59.50;;;;;;5053784;28;20230;-77
2021/03/06 10:03:52;;;;;;;6.15;3.80;;;16.90;58.30;;;;;;5058428;28;20202;-77
2021/03/06 10:06:21;;;;;;;8.52;4.28;;;16.10;58.10;;;;;;5058503;28;20226;-77
2021/03/06 10:08:52;;;;;;;6.95;3.92;;;15.60;60.20;;;;;;5060098;28;20200;-75
2021/03/06 10:11:19;;;;;;;6.97;4.22;;;15.20;61.50;;;;;;5062082;28;20224;-74
2021/03/06 10:13:51;;;;;;;7.15;3.90;;;14.60;61.20;;;;;;5056588;28;20237;-74
2021/03/06 10:16:17;;;;;;;6.80;4.05;;;13.80;60.50;;;;;;5053376;28;20742;-72
2021/03/06 10:18:44;;;;;;;6.78;4.55;;;13.30;62.60;;;;;;5052142;28;20208;-72
2021/03/06 10:21:12;;;;;;;7.75;4.45;;;12.70;62.60;;;;;;5060014;28;20205;-74
2021/03/06 10:23:40;;;;;;;10.00;5.05;;;12.20;64.00;;;;;;5056535;28;20201;-74
2021/03/06 10:26:19;;;;;;;5.43;3.42;;;12.00;65.20;;;;;;5054778;28;20232;-74
2021/03/06 10:28:48;;;;;;;5.18;4.53;;;11.90;64.90;;;;;;5061022;28;20670;-74
2021/03/06 10:31:33;;;;;;;3.78;3.47;;;11.60;66.30;;;;;;5055445;28;20197;-74
2021/03/06 10:34:14;;;;;;;5.43;4.32;;;11.40;67.80;;;;;;5060379;28;20197;-74
2021/03/06 10:36:41;;;;;;;5.22;3.63;;;11.30;67.40;;;;;;5053482;28;20209;-74
2021/03/06 10:39:19;;;;;;;6.65;3.20;;;11.10;67.40;;;;;;5061466;28;20239;-74
2021/03/06 10:41:55;;;;;;;6.00;3.28;;;11.10;67.50;;;;;;5050010;28;20555;-74
2021/03/06 10:44:21;;;;;;;5.28;2.97;;;11.10;67.50;;;;;;5063478;28;20209;-74
2021/03/06 10:46:58;;;;;;;6.43;3.33;;;11.10;68.10;;;;;;5049702;28;20233;-74
2021/03/06 10:49:36;;;;;;;6.43;3.40;;;11.40;68.50;;;;;;5052653;28;20579;-74
2021/03/06 10:52:05;;;;;;;6.25;3.50;;;11.30;66.10;;;;;;5058677;28;20288;-74
2021/03/06 10:54:47;;;;;;;9.70;5.45;;;11.20;67.00;;;;;;5053232;28;20197;-74
2021/03/06 10:57:13;;;;;;;4.10;3.42;;;11.20;67.70;;;;;;5055275;28;20212;-74
2021/03/06 10:59:40;;;;;;;6.05;3.40;;;11.30;68.90;;;;;;5051685;28;20205;-74
2021/03/06 11:08:27;;;;;;;8.40;3.63;;;11.50;65.60;;;;;;5110168;28;20195;-75
2021/03/06 11:10:54;;;;;;;4.97;3.65;;;11.50;65.90;;;;;;5103286;28;20209;-75
2021/03/06 11:13:20;;;;;;;5.95;3.50;;;11.70;67.10;;;;;;5110328;28;20203;-74
2021/03/06 11:15:48;;;;;;;7.85;3.70;;;11.80;66.50;;;;;;5110601;28;20195;-74
2021/03/06 11:18:14;;;;;;;7.00;5.18;;;11.50;65.50;;;;;;5111230;28;20233;-76
2021/03/06 11:20:42;;;;;;;7.97;4.50;;;10.80;67.70;;;;;;5115223;28;20204;-76
2021/03/06 11:23:09;;;;;;;5.45;4.15;;;10.60;69.70;;;;;;5104965;28;20261;-76
2021/03/06 11:36:28;;;;;;;6.40;4.80;;;9.60;72.90;;;;;;5103129;28;20219;-76
2021/03/06 11:41:36;;;;;;;4.45;4.15;;;9.10;74.70;;;;;;5104798;28;20213;-76
2021/03/06 11:44:03;;;;;;;7.05;3.95;;;9.00;74.50;;;;;;5116561;28;20245;-76
2021/03/06 11:46:30;;;;;;;11.88;4.25;;;8.90;75.50;;;;;;5105729;28;20208;-76
2021/03/06 11:48:56;;;;;;;6.30;3.60;;;8.80;75.40;;;;;;5102915;28;20200;-76
2021/03/06 11:51:23;;;;;;;6.57;4.03;;;8.80;77.20;;;;;;5105667;28;20200;-76
2021/03/06 11:53:49;;;;;;;7.85;3.72;;;8.80;77.00;;;;;;5104037;28;20730;-77
2021/03/06 11:56:19;;;;;;;10.43;4.55;;;8.70;77.00;;;;;;5112198;28;20907;-76
2021/03/06 11:58:47;;;;;;;11.63;4.20;;;8.60;77.90;;;;;;5111384;28;20199;-76
2021/03/06 12:01:14;;;;;;;10.10;4.70;;;8.60;76.80;;;;;;5105242;28;20199;-76
2021/03/06 12:03:40;;;;;;;6.00;3.90;;;8.50;77.00;;;;;;5108483;28;20239;-77
2021/03/06 12:06:07;;;;;;;10.40;4.57;;;8.40;77.30;;;;;;5102987;28;20203;-77
2021/03/06 12:08:33;;;;;;;4.00;3.60;;;8.20;76.20;;;;;;5104344;28;20226;-77
2021/03/06 12:11:00;;;;;;;7.43;4.57;;;8.20;78.30;;;;;;5103978;28;20204;-77
2021/03/06 12:13:26;;;;;;;5.22;3.50;;;8.20;77.90;;;;;;5107864;28;20195;-76
2021/03/06 12:15:55;;;;;;;7.20;4.32;;;8.30;78.90;;;;;;5092020;28;20201;-76
2021/03/06 12:18:22;;;;;;;9.10;3.30;;;8.40;79.50;;;;;;5093348;28;20563;-75
2021/03/06 12:20:49;;;;;;;7.43;3.10;;;8.50;79.70;;;;;;5091799;28;20201;-74
2021/03/06 12:23:15;;;;;;;11.00;4.43;;;8.50;77.80;;;;;;5096613;28;20238;-73
2021/03/06 12:25:42;;;;;;;4.60;3.75;;;8.40;78.00;;;;;;5090398;28;20202;-76
2021/03/06 12:28:10;;;;;;;3.83;3.53;;;8.40;79.00;;;;;;5095535;28;20204;-77
2021/03/06 12:30:37;;;;;;;6.35;3.85;;;8.30;79.10;;;;;;5094355;28;20216;-76
2021/03/06 12:33:05;;;;;;;8.30;3.90;;;8.30;79.10;;;;;;5095504;28;20227;-76
2021/03/06 12:35:32;;;;;;;9.23;4.50;;;8.30;79.80;;;;;;5094067;28;20711;-76
2021/03/06 12:37:58;;;;;;;6.63;4.30;;;8.30;79.60;;;;;;5094036;28;20195;-76
2021/03/06 12:40:27;;;;;;;8.23;4.40;;;8.20;79.70;;;;;;5095836;28;20266;-76
2021/03/06 12:42:53;;;;;;;9.77;3.90;;;8.20;79.10;;;;;;5088031;28;20231;-76
2021/03/06 12:45:20;;;;;;;6.35;4.22;;;8.30;80.30;;;;;;5100037;28;20219;-77
2021/03/06 12:47:47;;;;;;;11.35;4.80;;;8.30;79.60;;;;;;5089599;28;20200;-77
2021/03/06 12:50:22;;;;;;;5.88;4.43;;;8.10;79.80;;;;;;5087763;28;20206;-76
2021/03/06 12:52:49;;;;;;;8.23;4.47;;;8.10;81.30;;;;;;5088004;28;20257;-76
2021/03/06 12:55:15;;;;;;;7.10;4.25;;;8.20;78.80;;;;;;5094818;28;20204;-76
2021/03/06 12:57:42;;;;;;;6.00;3.67;;;8.20;78.00;;;;;;5093428;28;20212;-76
2021/03/06 13:00:10;;;;;;;3.80;3.35;;;8.10;78.40;;;;;;5087729;28;20590;-76
2021/03/06 13:02:37;;;;;;;6.55;3.67;;;8.10;79.40;;;;;;5090655;28;20216;-76
2021/03/06 13:05:04;;;;;;;8.77;3.90;;;8.10;80.00;;;;;;5092047;28;20226;-76
2021/03/06 13:07:31;;;;;;;6.00;3.50;;;8.20;79.90;;;;;;5096728;28;20200;-76
2021/03/06 13:09:58;;;;;;;7.47;3.70;;;8.20;79.80;;;;;;5094771;28;20237;-76
2021/03/06 13:12:24;;;;;;;7.78;3.35;;;8.30;81.20;;;;;;5091589;28;20195;-76
2021/03/06 13:14:51;;;;;;;8.57;3.72;;;8.40;81.70;;;;;;5087026;28;20207;-76
2021/03/06 13:17:18;;;;;;;7.43;4.57;;;8.40;81.10;;;;;;5094120;28;20649;-77
2021/03/06 13:19:44;;;;;;;6.22;4.38;;;8.40;78.80;;;;;;5093132;28;20201;-76
2021/03/06 13:22:11;;;;;;;6.18;3.92;;;8.30;79.80;;;;;;5093415;28;20218;-76